createdAt,value
2022-09-12T04:20:09.953Z,22.6
2022-09-12T04:25:04.147Z,22.86
2022-09-12T04:29:56.481Z,22.76
2022-09-12T04:34:48.883Z,22.71
2022-09-12T04:39:41.423Z,22.69
2022-09-12T04:44:33.626Z,22.73
2022-09-12T04:49:26.245Z,22.66
2022-09-12T04:54:18.772Z,22.61
2022-09-12T04:59:11.153Z,22.65
2022-09-12T05:04:03.369Z,22.61
2022-09-12T05:08:55.568Z,22.38
2022-09-12T05:13:48.302Z,22.48
2022-09-12T05:18:40.954Z,22.36
2022-09-12T05:23:33.581Z,22.43
2022-09-12T05:28:26.202Z,22.34
2022-09-12T05:33:20.945Z,22.49
2022-09-12T05:38:11.363Z,22.45
2022-09-12T05:43:03.400Z,22.33
2022-09-12T05:47:55.830Z,22.45
2022-09-12T05:52:48.249Z,22.41
2022-09-12T05:57:40.524Z,22.26
2022-09-12T06:02:33.030Z,22.43
2022-09-12T06:07:25.208Z,22.29
2022-09-12T06:12:17.545Z,22.13
2022-09-12T06:17:10.027Z,22.27
2022-09-12T06:22:02.434Z,22.46
2022-09-12T06:26:54.677Z,22.45
2022-09-12T06:31:47.323Z,22.46
2022-09-12T06:36:40.000Z,22.48
2022-09-12T06:41:32.320Z,22.5
2022-09-12T06:46:24.675Z,22.47
2022-09-12T06:51:17.233Z,22.46
2022-09-12T06:56:09.516Z,22.45
2022-09-12T07:01:01.927Z,22.53
2022-09-12T07:05:54.443Z,22.47
2022-09-12T07:10:46.662Z,22.47
2022-09-12T07:15:39.390Z,22.68
2022-09-12T07:20:31.861Z,22.62
2022-09-12T07:25:24.291Z,22.59
2022-09-12T07:30:16.783Z,22.65
2022-09-12T07:35:09.439Z,22.93
2022-09-12T07:40:01.484Z,22.81
2022-09-12T07:44:53.967Z,22.93
2022-09-12T07:49:46.395Z,23.07
2022-09-12T07:54:38.949Z,23.12
2022-09-12T07:59:51.198Z,23.17
2022-09-12T08:04:24.426Z,23.22
2022-09-12T08:09:17.202Z,23.35
2022-09-12T08:14:09.991Z,23.38
2022-09-12T08:19:02.214Z,23.36
2022-09-12T08:23:54.469Z,23.3
2022-09-12T08:28:47.121Z,23.34
2022-09-12T08:33:39.614Z,23.3
2022-09-12T08:38:32.001Z,23.21
2022-09-12T08:43:24.282Z,23.25
2022-09-12T08:48:16.158Z,23.15
2022-09-12T08:53:08.542Z,23.18
2022-09-12T08:58:01.148Z,23.17
2022-09-12T09:02:53.833Z,23.13
2022-09-12T09:07:46.197Z,23.13
2022-09-12T09:12:38.937Z,23.13
2022-09-12T09:17:31.102Z,23.08
2022-09-12T09:22:23.349Z,23.05
2022-09-12T09:27:37.240Z,23.06
2022-09-12T09:32:08.738Z,23.09
2022-09-12T09:37:01.175Z,23.1
2022-09-12T09:41:53.793Z,23.13
2022-09-12T09:46:46.372Z,23.16
2022-09-12T09:51:39.241Z,23.2
2022-09-12T09:56:31.758Z,23.21
2022-09-12T10:01:24.228Z,23.2
2022-09-12T10:06:16.663Z,23.18
2022-09-12T10:11:09.206Z,23.21
2022-09-12T10:16:01.852Z,23.13
2022-09-12T10:20:54.726Z,23.2
2022-09-12T10:25:47.563Z,23.25
2022-09-12T10:30:40.379Z,23.25
2022-09-12T10:35:32.780Z,23.32
2022-09-12T10:40:25.536Z,23.34
2022-09-12T10:45:18.651Z,23.28
2022-09-12T10:50:20.890Z,23.3
2022-09-12T10:55:03.934Z,23.3
2022-09-12T10:59:56.609Z,23.37
2022-09-12T11:04:49.192Z,23.38
2022-09-12T11:09:41.573Z,23.51
2022-09-12T11:14:33.903Z,23.55
2022-09-12T11:24:14.620Z,23.64
2022-09-12T11:29:08.116Z,23.76
2022-09-12T11:34:00.707Z,23.76
2022-09-12T11:38:53.407Z,23.71
2022-09-12T11:43:46.159Z,23.71
2022-09-12T11:48:38.708Z,23.65
2022-09-12T11:53:31.211Z,23.62
2022-09-12T11:58:23.484Z,23.84
2022-09-12T12:03:15.696Z,23.88
2022-09-12T12:08:08.176Z,23.92
2022-09-12T12:13:00.748Z,23.98
2022-09-12T12:17:53.264Z,24.02
2022-09-12T12:22:46.053Z,24.04
2022-09-12T12:27:38.492Z,24.05
2022-09-12T12:32:33.204Z,24.08
2022-09-12T12:37:25.604Z,24.08
2022-09-12T12:42:19.551Z,24.09
2022-09-12T12:47:10.228Z,24.1
2022-09-12T12:52:03.052Z,24.11
2022-09-12T12:56:55.567Z,24.11
2022-09-12T13:01:51.601Z,24.11
2022-09-12T13:06:40.723Z,24.12
2022-09-12T13:11:33.470Z,24.12
2022-09-12T13:16:26.106Z,24.15
2022-09-12T13:21:18.765Z,24.13
2022-09-12T13:26:11.299Z,24.1
2022-09-12T13:31:04.020Z,24.13
2022-09-12T13:35:56.448Z,24.1
2022-09-12T13:40:49.146Z,24.1
2022-09-12T13:45:41.626Z,24.1
2022-09-12T13:50:34.072Z,24.08
2022-09-12T13:55:27.079Z,24.08
2022-09-12T14:00:19.955Z,24.1
2022-09-12T14:05:12.508Z,24.12
2022-09-12T14:10:04.995Z,24.13
2022-09-12T14:14:57.557Z,24.14
2022-09-12T14:19:50.384Z,24.16
2022-09-12T14:24:43.051Z,24.12
2022-09-12T14:29:35.628Z,24.14
2022-09-12T14:34:30.338Z,24.16
2022-09-12T14:39:22.712Z,24.16
2022-09-12T14:44:15.320Z,24.16
2022-09-12T14:49:07.753Z,24.16
2022-09-12T14:54:00.203Z,24.15
2022-09-12T14:58:52.882Z,24.17
2022-09-12T15:03:49.375Z,24.18
2022-09-12T15:08:38.195Z,24.17
2022-09-12T15:13:30.677Z,24.17
2022-09-12T15:18:23.240Z,24.15
2022-09-12T15:23:15.793Z,24.15
2022-09-12T15:28:08.440Z,24.18
2022-09-12T15:33:01.014Z,24.18
2022-09-12T15:37:53.545Z,24.19
2022-09-12T15:42:46.241Z,24.2
2022-09-12T15:47:38.546Z,24.2
2022-09-12T15:52:31.339Z,24.23
2022-09-12T15:57:23.869Z,24.22
2022-09-12T16:02:16.410Z,24.25
2022-09-12T16:07:09.127Z,24.28
2022-09-12T16:12:01.383Z,24.26
2022-09-12T16:16:53.948Z,24.22
2022-09-12T16:21:46.294Z,24.23
2022-09-12T16:26:38.942Z,24.24
2022-09-12T16:31:31.385Z,24.25
2022-09-12T16:36:23.929Z,24.22
2022-09-12T16:41:16.858Z,24.19
2022-09-12T16:46:09.094Z,24.18
2022-09-12T16:51:01.518Z,24.16
2022-09-12T16:55:53.838Z,24.13
2022-09-12T17:00:47.140Z,24.14
2022-09-12T17:05:39.652Z,24.14
2022-09-12T17:10:32.098Z,24.16
2022-09-12T17:15:24.862Z,24.12
2022-09-12T17:20:17.433Z,24.08
2022-09-12T17:25:09.777Z,24.08
2022-09-12T17:30:02.297Z,24.08
2022-09-12T17:34:54.961Z,24.11
2022-09-12T17:39:47.426Z,24.11
2022-09-12T17:44:39.855Z,24.07
2022-09-12T17:49:32.350Z,24.08
2022-09-12T17:54:24.937Z,24.11
2022-09-12T17:59:17.897Z,24.09
2022-09-12T18:04:10.474Z,24.08
2022-09-12T18:09:03.345Z,24.09
2022-09-12T18:13:55.441Z,24.09
2022-09-12T18:18:47.989Z,24.07
2022-09-12T18:23:40.709Z,24.08
2022-09-12T18:28:32.601Z,24.04
2022-09-12T18:33:25.355Z,24.05
2022-09-12T18:38:17.860Z,24.03
2022-09-12T18:43:10.404Z,24.04
2022-09-12T18:48:02.916Z,24.05
2022-09-12T18:52:59.062Z,24.01
2022-09-12T18:57:48.136Z,24.01
2022-09-12T19:02:40.545Z,23.97
2022-09-12T19:07:32.920Z,23.96
2022-09-12T19:12:25.059Z,23.94
2022-09-12T19:17:17.710Z,23.91
2022-09-12T19:22:10.104Z,23.86
2022-09-12T19:27:02.520Z,23.87
2022-09-12T19:31:55.196Z,23.86
2022-09-12T19:36:47.976Z,23.88
2022-09-12T19:41:40.725Z,23.91
2022-09-12T19:46:33.228Z,23.91
2022-09-12T19:51:25.885Z,23.91
2022-09-12T19:56:18.365Z,23.86
2022-09-12T20:01:10.741Z,23.86
2022-09-12T20:06:03.361Z,23.86
2022-09-12T20:10:57.096Z,23.87
2022-09-12T20:15:48.735Z,23.84
2022-09-12T20:20:41.227Z,23.85
2022-09-12T20:25:33.816Z,23.84
2022-09-12T20:30:26.370Z,23.85
2022-09-12T20:35:18.780Z,23.83
2022-09-12T20:40:11.273Z,23.83
2022-09-12T20:45:03.530Z,23.83
2022-09-12T20:49:56.007Z,23.83
2022-09-12T20:54:48.592Z,23.81
2022-09-12T20:59:40.935Z,23.79
2022-09-12T21:04:33.158Z,23.76
2022-09-12T21:09:25.533Z,23.76
2022-09-12T21:14:17.925Z,23.77
2022-09-12T21:19:10.219Z,23.74
2022-09-12T21:24:02.872Z,23.75
2022-09-12T21:28:55.436Z,23.75
2022-09-12T21:33:48.218Z,23.7
2022-09-12T21:38:40.552Z,23.7
2022-09-12T21:43:33.024Z,23.71
2022-09-12T21:48:25.618Z,23.71
2022-09-12T21:53:18.300Z,23.72
2022-09-12T21:58:10.750Z,23.74
2022-09-12T22:03:03.463Z,23.71
2022-09-12T22:07:55.731Z,23.69
2022-09-12T22:12:47.997Z,23.72
2022-09-12T22:17:40.829Z,23.71
2022-09-12T22:22:33.463Z,23.69
2022-09-12T22:27:26.175Z,23.69
2022-09-12T22:32:18.614Z,23.68
2022-09-12T22:37:11.037Z,23.68
2022-09-12T22:42:03.575Z,23.68
2022-09-12T22:46:56.420Z,23.68
2022-09-12T22:51:48.718Z,23.63
2022-09-12T22:56:41.515Z,23.63
2022-09-12T23:01:33.961Z,23.62
2022-09-12T23:06:26.447Z,23.63
2022-09-12T23:11:18.795Z,23.63
2022-09-12T23:16:11.391Z,23.61
2022-09-12T23:21:03.915Z,23.59
2022-09-12T23:25:56.501Z,23.6
2022-09-12T23:30:49.289Z,23.61
2022-09-12T23:35:41.618Z,23.59
2022-09-12T23:40:34.151Z,23.58
2022-09-12T23:45:26.712Z,23.57
2022-09-12T23:50:19.477Z,23.56
2022-09-12T23:55:11.449Z,23.56
